Cape Express — HO5337 — position and weather

sailwx.info

Track history (hours):
 
Tides and Currents Weather Stations Pressure Air Temp Water Temp Dewpoint Dewpoint Depression Visibility Wind Speed Wind Dir Waves Ship Positions

Cape Express

Last reported at 2018-Aug-19 15:00 UTC. Time now 2018-Aug-19 15:20 UTC.
Position N 26°04' W 080°08'.

Length 29 m; draft 6.1 m.

Type: Cargo ship. MMSI: 370269000.

Date/timePositionNaut miles runAvg speedWind from/ knotsBaromVisibWave heightAir tempDewpointWater temp
2018-Aug-19 15:00N 26°04' W 080°08'0 0.0
2018-Aug-19 14:30N 26°04' W 080°08'0 0.0
2018-Aug-19 14:00N 26°04' W 080°08'0 0.0
2018-Aug-19 13:30N 26°04' W 080°08'0 0.0
2018-Aug-19 13:00N 26°04' W 080°08'0 0.0
2018-Aug-19 12:30N 26°04' W 080°08'0 0.0
2018-Aug-19 12:00N 26°04' W 080°08'0 0.0
2018-Aug-19 11:30N 26°04' W 080°08'0 0.0
2018-Aug-19 11:00N 26°04' W 080°08'0 0.0
2018-Aug-19 10:30N 26°04' W 080°08'0 0.0
2018-Aug-19 10:00N 26°04' W 080°08'0 0.0
2018-Aug-19 09:30N 26°04' W 080°08'0 0.0
2018-Aug-19 09:00N 26°04' W 080°08'0 0.0
2018-Aug-19 08:30N 26°04' W 080°08'0 0.0
2018-Aug-19 08:00N 26°04' W 080°08'0 0.0
2018-Aug-19 07:30N 26°04' W 080°08'0 0.0
2018-Aug-19 07:00N 26°04' W 080°08'0 0.0
2018-Aug-19 06:30N 26°04' W 080°08'0 0.0
2018-Aug-19 06:00N 26°04' W 080°08'0 0.0
2018-Aug-19 05:30N 26°04' W 080°08'0 0.0
2018-Aug-19 05:00N 26°04' W 080°08'0 0.0
2018-Aug-19 04:30N 26°04' W 080°08'0 0.0
2018-Aug-19 04:00N 26°04' W 080°08'0 0.0
2018-Aug-19 03:30N 26°04' W 080°08'0 0.0
2018-Aug-19 03:00N 26°04' W 080°08'0 0.0
2018-Aug-19 02:30N 26°04' W 080°08'0 0.0
2018-Aug-19 02:00N 26°04' W 080°08'0 0.0
2018-Aug-19 01:30N 26°04' W 080°08'0 0.0
2018-Aug-19 01:00N 26°04' W 080°08'0 0.2
2018-Aug-19 00:30N 26°04' W 080°08'1 2.4
2018-Aug-19 00:00N 26°04' W 080°07'3 6.7
2018-Aug-18 23:30N 26°05' W 080°03'611.8
2018-Aug-18 23:00N 26°01' W 079°59'612.4
2018-Aug-18 22:30N 25°57' W 079°54'612.4
2018-Aug-18 22:00N 25°52' W 079°49'612.1
2018-Aug-18 21:30N 25°48' W 079°44'12 1.1
2018-Aug-18 10:25N 25°40' W 079°34'3 7.1
2018-Aug-18 09:58N 25°43' W 079°36'3 6.8
2018-Aug-18 09:30N 25°45' W 079°39'3 6.5
2018-Aug-18 09:00N 25°47' W 079°41'3 6.2
2018-Aug-18 08:30N 25°50' W 079°43'3 6.0
2018-Aug-18 08:00N 25°52' W 079°46'3 5.6
2018-Aug-18 07:30N 25°54' W 079°48'2 4.8
2018-Aug-18 07:00N 25°56' W 079°48'3 5.7
2018-Aug-18 06:30N 25°59' W 079°50'3 5.5
2018-Aug-18 06:00N 26°01' W 079°52'2 4.7
2018-Aug-18 05:30N 26°03' W 079°54'3 5.6
2018-Aug-18 05:00N 26°04' W 079°56'3 6.6
2018-Aug-18 04:30N 26°05' W 079°60'4 8.1
2018-Aug-18 04:00N 26°06' W 080°04'3 5.8
2018-Aug-18 03:30N 26°04' W 080°07'1 1.7
2018-Aug-18 02:59N 26°04' W 080°08'0 0.0
2018-Aug-18 02:29N 26°04' W 080°08'0 0.0
2018-Aug-18 02:00N 26°04' W 080°08'0 0.0
2018-Aug-18 01:30N 26°04' W 080°08'0 0.0
2018-Aug-18 01:00N 26°04' W 080°08'0 0.0
2018-Aug-18 00:30N 26°04' W 080°08'1 2.8
2018-Aug-18 00:00N 26°05' W 080°07'3 6.8
2018-Aug-17 23:30N 26°07' W 080°04'1 2.6
2018-Aug-17 23:00N 26°07' W 080°03'4 8.1
2018-Aug-17 22:30N 26°08' W 079°58'4 7.4
2018-Aug-17 22:00N 26°09' W 079°55'4 7.4
2018-Aug-17 21:30N 26°10' W 079°51'4 7.5
2018-Aug-17 21:00N 26°11' W 079°47'4 7.8
2018-Aug-17 20:28N 26°13' W 079°42'4 8.0
2018-Aug-17 19:57N 26°14' W 079°38'5 0.4
2018-Aug-17 06:45N 26°13' W 079°33'2 9.9
2018-Aug-17 06:30N 26°12' W 079°35'5 9.9
2018-Aug-17 06:00N 26°11' W 079°40'5 9.5
2018-Aug-17 05:30N 26°10' W 079°46'5 9.5
2018-Aug-17 05:00N 26°08' W 079°51'5 9.4
2018-Aug-17 04:30N 26°07' W 079°56'5 9.3
2018-Aug-17 04:00N 26°07' W 080°01'4 8.7
2018-Aug-17 03:30N 26°06' W 080°06'1 2.3
2018-Aug-17 02:59N 26°05' W 080°07'2 3.4
2018-Aug-17 02:30N 26°04' W 080°08'0 0.0
2018-Aug-17 02:00N 26°04' W 080°08'0 0.0
2018-Aug-17 01:30N 26°04' W 080°08'0 0.0
2018-Aug-17 01:00N 26°04' W 080°08'0 0.0
2018-Aug-17 00:30N 26°04' W 080°08'0 0.0
2018-Aug-17 00:00N 26°04' W 080°08'0 0.0
2018-Aug-16 23:30N 26°04' W 080°08'1 1.7
2018-Aug-16 23:00N 26°04' W 080°07'3 5.4
2018-Aug-16 22:30N 26°06' W 080°05'510.0
2018-Aug-16 22:00N 26°05' W 079°60'5 9.1
2018-Aug-16 21:30N 26°05' W 079°54'4 9.1
2018-Aug-16 21:00N 26°04' W 079°49'5 9.1
2018-Aug-16 20:28N 26°04' W 079°44'5 9.3
2018-Aug-16 19:57N 26°04' W 079°39'12 0.9
2018-Aug-16 06:07N 26°13' W 079°30'1 9.7
2018-Aug-16 05:59N 26°13' W 079°31'5 9.7
2018-Aug-16 05:30N 26°12' W 079°36'5 9.4
2018-Aug-16 05:00N 26°11' W 079°41'5 9.4
2018-Aug-16 04:30N 26°10' W 079°47'510.6
2018-Aug-16 04:00N 26°07' W 079°52'510.1
2018-Aug-16 03:29N 26°06' W 079°57'4 9.0
2018-Aug-16 03:00N 26°05' W 080°02'4 8.6
2018-Aug-16 02:30N 26°06' W 080°07'2 4.1
2018-Aug-16 02:00N 26°04' W 080°08'0 0.0
2018-Aug-16 01:30N 26°04' W 080°08'0 0.0
2018-Aug-16 01:00N 26°04' W 080°08'0 0.0
2018-Aug-16 00:30N 26°04' W 080°08'0 0.0
2018-Aug-16 00:00N 26°04' W 080°08'0 0.0
2018-Aug-15 23:30N 26°04' W 080°08'0 0.0
2018-Aug-15 23:00N 26°04' W 080°08'0 0.0
2018-Aug-15 22:30N 26°04' W 080°08'0 0.0
2018-Aug-15 22:00N 26°04' W 080°08'0 0.0
2018-Aug-15 21:30N 26°04' W 080°08'0 0.0
2018-Aug-15 21:00N 26°04' W 080°08'0 0.0
2018-Aug-15 20:30N 26°04' W 080°08'0 0.0
2018-Aug-15 20:00N 26°04' W 080°08'0 0.0
2018-Aug-15 19:30N 26°04' W 080°08'0 0.0
2018-Aug-15 19:00N 26°04' W 080°08'0 0.0
2018-Aug-15 18:30N 26°04' W 080°08'0 0.0
2018-Aug-15 18:00N 26°04' W 080°08'0 0.0
2018-Aug-15 17:30N 26°04' W 080°08'0 0.0
2018-Aug-15 17:00N 26°04' W 080°08'0 0.0
2018-Aug-15 16:30N 26°04' W 080°08'0 0.0
2018-Aug-15 16:00N 26°04' W 080°08'0 0.0
2018-Aug-15 15:30N 26°04' W 080°08'0 0.0
2018-Aug-15 15:00N 26°04' W 080°08'0 0.0
2018-Aug-15 14:30N 26°04' W 080°08'0 0.0
2018-Aug-15 14:00N 26°04' W 080°08'0 0.0
2018-Aug-15 13:30N 26°04' W 080°08'0 0.0
2018-Aug-15 13:00N 26°04' W 080°08'0 0.0
2018-Aug-15 12:30N 26°04' W 080°08'0 0.0
2018-Aug-15 12:00N 26°04' W 080°08'0 0.7
2018-Aug-15 11:30N 26°04' W 080°07'3 5.1
2018-Aug-15 11:00N 26°06' W 080°06'4 8.0
2018-Aug-15 10:30N 26°05' W 080°01'4 8.0
2018-Aug-15 10:00N 26°03' W 079°57'4 7.0
2018-Aug-15 09:30N 26°02' W 079°54'3 6.8
2018-Aug-15 09:00N 26°01' W 079°50'4 7.3
2018-Aug-15 08:29N 25°60' W 079°46'4 7.3
2018-Aug-15 08:00N 25°58' W 079°42'5 7.3
2018-Aug-15 07:21N 25°57' W 079°38'  
2018-Aug-11 07:17N 26°15' W 079°27'310.7
2018-Aug-11 07:00N 26°13' W 079°30'510.8
2018-Aug-11 06:30N 26°09' W 079°35'510.3
2018-Aug-11 06:00N 26°07' W 079°40'5 9.3
2018-Aug-11 05:30N 26°07' W 079°45'5 9.4
2018-Aug-11 04:59N 26°06' W 079°50'4 9.2
2018-Aug-11 04:30N 26°05' W 079°55'4 8.9
2018-Aug-11 04:00N 26°05' W 080°00'4 8.4
2018-Aug-11 03:30N 26°05' W 080°05'3 5.4
2018-Aug-11 02:59N 26°04' W 080°07'0 0.9
2018-Aug-11 02:30N 26°04' W 080°08'0 0.0
2018-Aug-11 02:00N 26°04' W 080°08'0 0.0
2018-Aug-11 01:30N 26°04' W 080°08'0 0.0
2018-Aug-11 01:00N 26°04' W 080°08'0 0.0
2018-Aug-11 00:30N 26°04' W 080°08'0 0.0
2018-Aug-11 00:00N 26°04' W 080°08'0 0.0
2018-Aug-10 23:30N 26°04' W 080°08'0 0.0
2018-Aug-10 23:00N 26°04' W 080°08'0 0.0
2018-Aug-10 22:30N 26°04' W 080°08'0 0.0
2018-Aug-10 22:00N 26°04' W 080°08'0 0.0
2018-Aug-10 21:30N 26°04' W 080°08'0 0.0
2018-Aug-10 21:00N 26°04' W 080°08'0 0.0
2018-Aug-10 20:30N 26°04' W 080°08'0 0.0
2018-Aug-10 20:00N 26°04' W 080°08'0 0.0
2018-Aug-10 19:30N 26°04' W 080°08'0 0.0
2018-Aug-10 19:00N 26°04' W 080°08'0 0.0
2018-Aug-10 18:30N 26°04' W 080°08'0 0.0
2018-Aug-10 17:59N 26°04' W 080°08'0 0.0
2018-Aug-10 17:30N 26°04' W 080°08'0 0.0
2018-Aug-10 17:00N 26°04' W 080°08'0 0.0
2018-Aug-10 16:30N 26°04' W 080°08'0 0.0
2018-Aug-10 16:00N 26°04' W 080°08'0 0.0
2018-Aug-10 15:30N 26°04' W 080°08'0 0.0
2018-Aug-10 15:00N 26°04' W 080°08'0 0.0
2018-Aug-10 14:30N 26°04' W 080°08'0 0.0
2018-Aug-10 14:00N 26°04' W 080°08'0 0.0
2018-Aug-10 13:30N 26°04' W 080°08'0 0.1
2018-Aug-10 12:59N 26°04' W 080°08'0 0.1
2018-Aug-10 12:30N 26°04' W 080°08'1 2.2
2018-Aug-10 12:00N 26°04' W 080°07'2 4.6
2018-Aug-10 11:30N 26°06' W 080°05'2 4.8
2018-Aug-10 11:00N 26°06' W 080°02'2 4.6
2018-Aug-10 10:30N 26°04' W 080°00'1 1.6
2018-Aug-10 10:00N 26°04' W 080°01'3 5.9
2018-Aug-10 09:29N 26°03' W 079°58'3 6.0
2018-Aug-10 09:00N 26°02' W 079°55'3 5.6
2018-Aug-10 08:30N 26°01' W 079°52'3 5.4
2018-Aug-10 08:00N 26°00' W 079°49'3 5.1
2018-Aug-10 07:30N 25°60' W 079°46'2 4.9
2018-Aug-10 07:00N 25°59' W 079°44'2 4.9
2018-Aug-10 06:30N 25°58' W 079°41'3 5.3
2018-Aug-10 05:52N 25°57' W 079°37'  
Track history (hours):
 
Tides and Currents Weather Stations Pressure Air Temp Water Temp Dewpoint Dewpoint Depression Visibility Wind Speed Wind Dir Waves Ship Positions

Cape Express

Last reported at 2018-Aug-19 15:00 UTC. Time now 2018-Aug-19 15:20 UTC.
Position N 26°04' W 080°08'.

Length 29 m; draft 6.1 m.

Type: Cargo ship. MMSI: 370269000.

Date/timePositionNaut miles runAvg speedWind from/ knotsBaromVisibWave heightAir tempDewpointWater temp
2018-Aug-19 15:00N 26°04' W 080°08'0 0.0
2018-Aug-19 14:30N 26°04' W 080°08'0 0.0
2018-Aug-19 14:00N 26°04' W 080°08'0 0.0
2018-Aug-19 13:30N 26°04' W 080°08'0 0.0
2018-Aug-19 13:00N 26°04' W 080°08'0 0.0
2018-Aug-19 12:30N 26°04' W 080°08'0 0.0
2018-Aug-19 12:00N 26°04' W 080°08'0 0.0
2018-Aug-19 11:30N 26°04' W 080°08'0 0.0
2018-Aug-19 11:00N 26°04' W 080°08'0 0.0
2018-Aug-19 10:30N 26°04' W 080°08'0 0.0
2018-Aug-19 10:00N 26°04' W 080°08'0 0.0
2018-Aug-19 09:30N 26°04' W 080°08'0 0.0
2018-Aug-19 09:00N 26°04' W 080°08'0 0.0
2018-Aug-19 08:30N 26°04' W 080°08'0 0.0
2018-Aug-19 08:00N 26°04' W 080°08'0 0.0
2018-Aug-19 07:30N 26°04' W 080°08'0 0.0
2018-Aug-19 07:00N 26°04' W 080°08'0 0.0
2018-Aug-19 06:30N 26°04' W 080°08'0 0.0
2018-Aug-19 06:00N 26°04' W 080°08'0 0.0
2018-Aug-19 05:30N 26°04' W 080°08'0 0.0
2018-Aug-19 05:00N 26°04' W 080°08'0 0.0
2018-Aug-19 04:30N 26°04' W 080°08'0 0.0
2018-Aug-19 04:00N 26°04' W 080°08'0 0.0
2018-Aug-19 03:30N 26°04' W 080°08'0 0.0
2018-Aug-19 03:00N 26°04' W 080°08'0 0.0
2018-Aug-19 02:30N 26°04' W 080°08'0 0.0
2018-Aug-19 02:00N 26°04' W 080°08'0 0.0
2018-Aug-19 01:30N 26°04' W 080°08'0 0.0
2018-Aug-19 01:00N 26°04' W 080°08'0 0.2
2018-Aug-19 00:30N 26°04' W 080°08'1 2.4
2018-Aug-19 00:00N 26°04' W 080°07'3 6.7
2018-Aug-18 23:30N 26°05' W 080°03'611.8
2018-Aug-18 23:00N 26°01' W 079°59'612.4
2018-Aug-18 22:30N 25°57' W 079°54'612.4
2018-Aug-18 22:00N 25°52' W 079°49'612.1
2018-Aug-18 21:30N 25°48' W 079°44'12 1.1
2018-Aug-18 10:25N 25°40' W 079°34'3 7.1
2018-Aug-18 09:58N 25°43' W 079°36'3 6.8
2018-Aug-18 09:30N 25°45' W 079°39'3 6.5
2018-Aug-18 09:00N 25°47' W 079°41'3 6.2
2018-Aug-18 08:30N 25°50' W 079°43'3 6.0
2018-Aug-18 08:00N 25°52' W 079°46'3 5.6
2018-Aug-18 07:30N 25°54' W 079°48'2 4.8
2018-Aug-18 07:00N 25°56' W 079°48'3 5.7
2018-Aug-18 06:30N 25°59' W 079°50'3 5.5
2018-Aug-18 06:00N 26°01' W 079°52'2 4.7
2018-Aug-18 05:30N 26°03' W 079°54'3 5.6
2018-Aug-18 05:00N 26°04' W 079°56'3 6.6
2018-Aug-18 04:30N 26°05' W 079°60'4 8.1
2018-Aug-18 04:00N 26°06' W 080°04'3 5.8
2018-Aug-18 03:30N 26°04' W 080°07'1 1.7
2018-Aug-18 02:59N 26°04' W 080°08'0 0.0
2018-Aug-18 02:29N 26°04' W 080°08'0 0.0
2018-Aug-18 02:00N 26°04' W 080°08'0 0.0
2018-Aug-18 01:30N 26°04' W 080°08'0 0.0
2018-Aug-18 01:00N 26°04' W 080°08'0 0.0
2018-Aug-18 00:30N 26°04' W 080°08'1 2.8
2018-Aug-18 00:00N 26°05' W 080°07'3 6.8
2018-Aug-17 23:30N 26°07' W 080°04'1 2.6
2018-Aug-17 23:00N 26°07' W 080°03'4 8.1
2018-Aug-17 22:30N 26°08' W 079°58'4 7.4
2018-Aug-17 22:00N 26°09' W 079°55'4 7.4
2018-Aug-17 21:30N 26°10' W 079°51'4 7.5
2018-Aug-17 21:00N 26°11' W 079°47'4 7.8
2018-Aug-17 20:28N 26°13' W 079°42'4 8.0
2018-Aug-17 19:57N 26°14' W 079°38'5 0.4
2018-Aug-17 06:45N 26°13' W 079°33'2 9.9
2018-Aug-17 06:30N 26°12' W 079°35'5 9.9
2018-Aug-17 06:00N 26°11' W 079°40'5 9.5
2018-Aug-17 05:30N 26°10' W 079°46'5 9.5
2018-Aug-17 05:00N 26°08' W 079°51'5 9.4
2018-Aug-17 04:30N 26°07' W 079°56'5 9.3
2018-Aug-17 04:00N 26°07' W 080°01'4 8.7
2018-Aug-17 03:30N 26°06' W 080°06'1 2.3
2018-Aug-17 02:59N 26°05' W 080°07'2 3.4
2018-Aug-17 02:30N 26°04' W 080°08'0 0.0
2018-Aug-17 02:00N 26°04' W 080°08'0 0.0
2018-Aug-17 01:30N 26°04' W 080°08'0 0.0
2018-Aug-17 01:00N 26°04' W 080°08'0 0.0
2018-Aug-17 00:30N 26°04' W 080°08'0 0.0
2018-Aug-17 00:00N 26°04' W 080°08'0 0.0
2018-Aug-16 23:30N 26°04' W 080°08'1 1.7
2018-Aug-16 23:00N 26°04' W 080°07'3 5.4
2018-Aug-16 22:30N 26°06' W 080°05'510.0
2018-Aug-16 22:00N 26°05' W 079°60'5 9.1
2018-Aug-16 21:30N 26°05' W 079°54'4 9.1
2018-Aug-16 21:00N 26°04' W 079°49'5 9.1
2018-Aug-16 20:28N 26°04' W 079°44'5 9.3
2018-Aug-16 19:57N 26°04' W 079°39'12 0.9
2018-Aug-16 06:07N 26°13' W 079°30'1 9.7
2018-Aug-16 05:59N 26°13' W 079°31'5 9.7
2018-Aug-16 05:30N 26°12' W 079°36'5 9.4
2018-Aug-16 05:00N 26°11' W 079°41'5 9.4
2018-Aug-16 04:30N 26°10' W 079°47'510.6
2018-Aug-16 04:00N 26°07' W 079°52'510.1
2018-Aug-16 03:29N 26°06' W 079°57'4 9.0
2018-Aug-16 03:00N 26°05' W 080°02'4 8.6
2018-Aug-16 02:30N 26°06' W 080°07'2 4.1
2018-Aug-16 02:00N 26°04' W 080°08'0 0.0
2018-Aug-16 01:30N 26°04' W 080°08'0 0.0
2018-Aug-16 01:00N 26°04' W 080°08'0 0.0
2018-Aug-16 00:30N 26°04' W 080°08'0 0.0
2018-Aug-16 00:00N 26°04' W 080°08'0 0.0
2018-Aug-15 23:30N 26°04' W 080°08'0 0.0
2018-Aug-15 23:00N 26°04' W 080°08'0 0.0
2018-Aug-15 22:30N 26°04' W 080°08'0 0.0
2018-Aug-15 22:00N 26°04' W 080°08'0 0.0
2018-Aug-15 21:30N 26°04' W 080°08'0 0.0
2018-Aug-15 21:00N 26°04' W 080°08'0 0.0
2018-Aug-15 20:30N 26°04' W 080°08'0 0.0
2018-Aug-15 20:00N 26°04' W 080°08'0 0.0
2018-Aug-15 19:30N 26°04' W 080°08'0 0.0
2018-Aug-15 19:00N 26°04' W 080°08'0 0.0
2018-Aug-15 18:30N 26°04' W 080°08'0 0.0
2018-Aug-15 18:00N 26°04' W 080°08'0 0.0
2018-Aug-15 17:30N 26°04' W 080°08'0 0.0
2018-Aug-15 17:00N 26°04' W 080°08'0 0.0
2018-Aug-15 16:30N 26°04' W 080°08'0 0.0
2018-Aug-15 16:00N 26°04' W 080°08'0 0.0
2018-Aug-15 15:30N 26°04' W 080°08'0 0.0
2018-Aug-15 15:00N 26°04' W 080°08'0 0.0
2018-Aug-15 14:30N 26°04' W 080°08'0 0.0
2018-Aug-15 14:00N 26°04' W 080°08'0 0.0
2018-Aug-15 13:30N 26°04' W 080°08'0 0.0
2018-Aug-15 13:00N 26°04' W 080°08'0 0.0
2018-Aug-15 12:30N 26°04' W 080°08'0 0.0
2018-Aug-15 12:00N 26°04' W 080°08'0 0.7
2018-Aug-15 11:30N 26°04' W 080°07'3 5.1
2018-Aug-15 11:00N 26°06' W 080°06'4 8.0
2018-Aug-15 10:30N 26°05' W 080°01'4 8.0
2018-Aug-15 10:00N 26°03' W 079°57'4 7.0
2018-Aug-15 09:30N 26°02' W 079°54'3 6.8
2018-Aug-15 09:00N 26°01' W 079°50'4 7.3
2018-Aug-15 08:29N 25°60' W 079°46'4 7.3
2018-Aug-15 08:00N 25°58' W 079°42'5 7.3
2018-Aug-15 07:21N 25°57' W 079°38'  
2018-Aug-11 07:17N 26°15' W 079°27'310.7
2018-Aug-11 07:00N 26°13' W 079°30'510.8
2018-Aug-11 06:30N 26°09' W 079°35'510.3
2018-Aug-11 06:00N 26°07' W 079°40'5 9.3
2018-Aug-11 05:30N 26°07' W 079°45'5 9.4
2018-Aug-11 04:59N 26°06' W 079°50'4 9.2
2018-Aug-11 04:30N 26°05' W 079°55'4 8.9
2018-Aug-11 04:00N 26°05' W 080°00'4 8.4
2018-Aug-11 03:30N 26°05' W 080°05'3 5.4
2018-Aug-11 02:59N 26°04' W 080°07'0 0.9
2018-Aug-11 02:30N 26°04' W 080°08'0 0.0
2018-Aug-11 02:00N 26°04' W 080°08'0 0.0
2018-Aug-11 01:30N 26°04' W 080°08'0 0.0
2018-Aug-11 01:00N 26°04' W 080°08'0 0.0
2018-Aug-11 00:30N 26°04' W 080°08'0 0.0
2018-Aug-11 00:00N 26°04' W 080°08'0 0.0
2018-Aug-10 23:30N 26°04' W 080°08'0 0.0
2018-Aug-10 23:00N 26°04' W 080°08'0 0.0
2018-Aug-10 22:30N 26°04' W 080°08'0 0.0
2018-Aug-10 22:00N 26°04' W 080°08'0 0.0
2018-Aug-10 21:30N 26°04' W 080°08'0 0.0
2018-Aug-10 21:00N 26°04' W 080°08'0 0.0
2018-Aug-10 20:30N 26°04' W 080°08'0 0.0
2018-Aug-10 20:00N 26°04' W 080°08'0 0.0
2018-Aug-10 19:30N 26°04' W 080°08'0 0.0
2018-Aug-10 19:00N 26°04' W 080°08'0 0.0
2018-Aug-10 18:30N 26°04' W 080°08'0 0.0
2018-Aug-10 17:59N 26°04' W 080°08'0 0.0
2018-Aug-10 17:30N 26°04' W 080°08'0 0.0
2018-Aug-10 17:00N 26°04' W 080°08'0 0.0
2018-Aug-10 16:30N 26°04' W 080°08'0 0.0
2018-Aug-10 16:00N 26°04' W 080°08'0 0.0
2018-Aug-10 15:30N 26°04' W 080°08'0 0.0
2018-Aug-10 15:00N 26°04' W 080°08'0 0.0
2018-Aug-10 14:30N 26°04' W 080°08'0 0.0
2018-Aug-10 14:00N 26°04' W 080°08'0 0.0
2018-Aug-10 13:30N 26°04' W 080°08'0 0.1
2018-Aug-10 12:59N 26°04' W 080°08'0 0.1
2018-Aug-10 12:30N 26°04' W 080°08'1 2.2
2018-Aug-10 12:00N 26°04' W 080°07'2 4.6
2018-Aug-10 11:30N 26°06' W 080°05'2 4.8
2018-Aug-10 11:00N 26°06' W 080°02'2 4.6
2018-Aug-10 10:30N 26°04' W 080°00'1 1.6
2018-Aug-10 10:00N 26°04' W 080°01'3 5.9
2018-Aug-10 09:29N 26°03' W 079°58'3 6.0
2018-Aug-10 09:00N 26°02' W 079°55'3 5.6
2018-Aug-10 08:30N 26°01' W 079°52'3 5.4
2018-Aug-10 08:00N 26°00' W 079°49'3 5.1
2018-Aug-10 07:30N 25°60' W 079°46'2 4.9
2018-Aug-10 07:00N 25°59' W 079°44'2 4.9
2018-Aug-10 06:30N 25°58' W 079°41'3 5.3
2018-Aug-10 05:52N 25°57' W 079°37'  

Dump ship's entire track history